Nantucket, MA

6:16 PM EDT on September 30, 2016 (GMT -0400)
Brant Point Nantucket | | Change Station

Elev 10 ft 41.29 °N, 70.10 °W | Updated 5 minutes ago

Rain
Rain Mist
58.6 °F
Feels Like 58.6 °F
N
17.7
Wind Variable Wind from ESE
Gusts 22.4 mph

Today
High -- | Low -- °F
--% Chance of Precip.
Yesterday
High -- | Low -- °F
Precip. -- in
Pressure 30.30 in
Visibility 1.2 miles
Clouds Scattered Clouds 600 ft
Mostly Cloudy 1500 ft
Overcast 2600 ft
Dew Point 58 °F
Humidity 99%
Rainfall 0.00 in
Snow Depth Not available.
6:36 AM 6:23 PM
Waning Crescent, 0% visible
SPECI KACK 302200Z 06016G21KT 1 1/4SM RA BR SCT006 BKN015 OVC026 15/14 A3030 RMK AO2 P0002 T01500139
Pressure 30.30 in
Visibility 1.2 miles
Clouds Scattered Clouds 600 ft
Mostly Cloudy 1500 ft
Overcast 2600 ft
Dew Point 58 °F
Humidity 99%
Rainfall 0.00 in
Snow Depth Not available.
6:36 AM 6:23 PM
Waning Crescent, 0% visible
SPECI KACK 302200Z 06016G21KT 1 1/4SM RA BR SCT006 BKN015 OVC026 15/14 A3030 RMK AO2 P0002 T01500139

10-Day Weather Forecast

Almanac

Astronomy

Sep. 30, 2016 Rise Set
Actual Time
Civil Twilight
Nautical Twilight
Astronomical Twilight
Moon
Length of Visible Light
Length of Day
Tomorrow will be .
, % of the Moon is Illuminated

Today's Extremes

State Highs State Lows

Community

WunderPhotos

Upload Photos

1,942,796 photos uploaded!

WunderBlog® & News

Nearby

Air Quality

  Air Quality AQ Index Pollutant
Not available.

Snow Depth

Station Depth Elevation

Earthquake Activity

City Distance Mag. Time & Date
Minimum magnitude displayed is 2.5.

Coastal Water Temperatures

Place Temperature

Stations

Nearby Weather Stations

Station Location Temp. Windchill Dew Point Humidity Wind Precip. Elev Updated Type
                   

Watches & Warnings

There are currently no watches in effect.